Terminal Aerodrome Forecast
Issued by NWS Upton, NY

Home | Current Version | Previous Version | Text Only | Print | Product List | Glossary On
Versions: 1 2 3 4 5 6 7 8 9 10 11 12 13 14 15 16 17 18 19 20 21 22 23 24 25 26 27 28 29 30
000
FTUS41 KOKX 260500
TAFBDR
TAF
KBDR 260540Z 2606/2706 27010KT P6SM VCSH BKN050
     FM260800 29010G16KT P6SM SCT050
     FM261200 30013G22KT P6SM SCT050
     FM261500 30016G28KT P6SM BKN050
     FM262200 30014G22KT P6SM FEW050
     FM270200 30011KT P6SM FEW050=

USA.gov is the U.S. government's official web portal to all federal, state and local government web resources and services.